sensor_id;sensor_type;location;lat;lon;timestamp;temperature;humidity
15298;DHT22;7750;48.796;9.026;2023-12-29T00:03:20;12.50;74.90
15298;DHT22;7750;48.796;9.026;2023-12-29T00:08:21;12.60;75.00
15298;DHT22;7750;48.796;9.026;2023-12-29T00:13:22;12.60;74.90
15298;DHT22;7750;48.796;9.026;2023-12-29T00:18:24;12.60;75.50
15298;DHT22;7750;48.796;9.026;2023-12-29T00:23:25;12.60;74.80
15298;DHT22;7750;48.796;9.026;2023-12-29T00:28:25;12.60;74.70
15298;DHT22;7750;48.796;9.026;2023-12-29T00:33:26;12.60;75.20
15298;DHT22;7750;48.796;9.026;2023-12-29T00:38:27;12.60;74.50
15298;DHT22;7750;48.796;9.026;2023-12-29T00:43:31;12.60;74.40
15298;DHT22;7750;48.796;9.026;2023-12-29T00:48:32;12.60;74.40
15298;DHT22;7750;48.796;9.026;2023-12-29T00:53:34;12.70;75.00
15298;DHT22;7750;48.796;9.026;2023-12-29T00:58:35;12.60;74.30
15298;DHT22;7750;48.796;9.026;2023-12-29T01:03:35;12.60;74.30
15298;DHT22;7750;48.796;9.026;2023-12-29T01:08:36;12.70;74.40
15298;DHT22;7750;48.796;9.026;2023-12-29T01:13:37;12.60;74.40
15298;DHT22;7750;48.796;9.026;2023-12-29T01:18:37;12.60;74.50
15298;DHT22;7750;48.796;9.026;2023-12-29T01:23:38;12.70;74.60
15298;DHT22;7750;48.796;9.026;2023-12-29T01:28:38;12.60;75.20
15298;DHT22;7750;48.796;9.026;2023-12-29T01:33:39;12.60;74.30
15298;DHT22;7750;48.796;9.026;2023-12-29T01:38:40;12.60;74.40
15298;DHT22;7750;48.796;9.026;2023-12-29T01:49:00;12.70;74.20
15298;DHT22;7750;48.796;9.026;2023-12-29T01:54:01;12.70;74.20
15298;DHT22;7750;48.796;9.026;2023-12-29T01:59:02;12.70;74.10
15298;DHT22;7750;48.796;9.026;2023-12-29T02:04:03;12.70;74.00
15298;DHT22;7750;48.796;9.026;2023-12-29T02:09:04;12.70;73.90
15298;DHT22;7750;48.796;9.026;2023-12-29T02:14:05;12.70;73.90
15298;DHT22;7750;48.796;9.026;2023-12-29T02:24:22;12.70;74.20
15298;DHT22;7750;48.796;9.026;2023-12-29T02:29:24;12.70;74.20
15298;DHT22;7750;48.796;9.026;2023-12-29T02:34:26;12.70;74.70
15298;DHT22;7750;48.796;9.026;2023-12-29T02:39:28;12.70;74.30
15298;DHT22;7750;48.796;9.026;2023-12-29T02:44:29;12.60;74.30
15298;DHT22;7750;48.796;9.026;2023-12-29T02:49:29;12.70;74.30
15298;DHT22;7750;48.796;9.026;2023-12-29T02:54:30;12.60;75.20
15298;DHT22;7750;48.796;9.026;2023-12-29T02:59:30;12.60;74.60
15298;DHT22;7750;48.796;9.026;2023-12-29T03:04:31;12.60;75.10
15298;DHT22;7750;48.796;9.026;2023-12-29T03:09:32;12.60;75.30
15298;DHT22;7750;48.796;9.026;2023-12-29T03:14:32;12.60;76.00
15298;DHT22;7750;48.796;9.026;2023-12-29T03:19:33;12.60;75.60
15298;DHT22;7750;48.796;9.026;2023-12-29T03:24:34;12.50;76.30
15298;DHT22;7750;48.796;9.026;2023-12-29T03:29:35;12.50;76.20
15298;DHT22;7750;48.796;9.026;2023-12-29T03:34:36;12.40;76.10
15298;DHT22;7750;48.796;9.026;2023-12-29T03:39:36;12.40;76.10
15298;DHT22;7750;48.796;9.026;2023-12-29T03:44:37;12.40;76.20
15298;DHT22;7750;48.796;9.026;2023-12-29T03:49:37;12.40;76.40
15298;DHT22;7750;48.796;9.026;2023-12-29T03:54:38;12.40;76.30
15298;DHT22;7750;48.796;9.026;2023-12-29T03:59:39;12.40;77.30
15298;DHT22;7750;48.796;9.026;2023-12-29T04:04:39;12.40;76.90
15298;DHT22;7750;48.796;9.026;2023-12-29T04:09:40;12.40;77.10
15298;DHT22;7750;48.796;9.026;2023-12-29T04:14:40;12.40;77.50
15298;DHT22;7750;48.796;9.026;2023-12-29T04:19:41;12.40;77.70
15298;DHT22;7750;48.796;9.026;2023-12-29T04:24:42;12.30;77.60
15298;DHT22;7750;48.796;9.026;2023-12-29T04:29:43;12.40;77.80
15298;DHT22;7750;48.796;9.026;2023-12-29T04:34:45;12.30;78.10
15298;DHT22;7750;48.796;9.026;2023-12-29T04:39:45;12.30;78.20
15298;DHT22;7750;48.796;9.026;2023-12-29T04:44:46;12.30;78.60
15298;DHT22;7750;48.796;9.026;2023-12-29T04:49:46;12.30;79.40
15298;DHT22;7750;48.796;9.026;2023-12-29T04:54:47;12.30;78.90
15298;DHT22;7750;48.796;9.026;2023-12-29T04:59:48;12.20;79.10
15298;DHT22;7750;48.796;9.026;2023-12-29T05:04:49;12.20;79.40
15298;DHT22;7750;48.796;9.026;2023-12-29T05:09:49;12.20;79.40
15298;DHT22;7750;48.796;9.026;2023-12-29T05:14:50;12.30;79.20
15298;DHT22;7750;48.796;9.026;2023-12-29T05:19:50;12.30;80.20
15298;DHT22;7750;48.796;9.026;2023-12-29T05:24:51;12.30;80.10
15298;DHT22;7750;48.796;9.026;2023-12-29T05:29:52;12.30;80.00
15298;DHT22;7750;48.796;9.026;2023-12-29T05:34:52;12.30;80.20
15298;DHT22;7750;48.796;9.026;2023-12-29T05:39:53;12.30;80.30
15298;DHT22;7750;48.796;9.026;2023-12-29T05:44:54;12.20;80.60
15298;DHT22;7750;48.796;9.026;2023-12-29T05:49:54;12.30;81.00
15298;DHT22;7750;48.796;9.026;2023-12-29T05:54:55;12.30;80.80
15298;DHT22;7750;48.796;9.026;2023-12-29T05:59:55;12.30;80.90
15298;DHT22;7750;48.796;9.026;2023-12-29T06:04:56;12.30;81.40
15298;DHT22;7750;48.796;9.026;2023-12-29T06:09:57;12.30;81.40
15298;DHT22;7750;48.796;9.026;2023-12-29T06:14:58;12.30;81.70
15298;DHT22;7750;48.796;9.026;2023-12-29T06:19:58;12.30;81.80
15298;DHT22;7750;48.796;9.026;2023-12-29T06:24:59;12.30;81.70
15298;DHT22;7750;48.796;9.026;2023-12-29T06:30:00;12.30;81.50
15298;DHT22;7750;48.796;9.026;2023-12-29T06:35:02;12.30;81.90
15298;DHT22;7750;48.796;9.026;2023-12-29T06:40:03;12.30;81.10
15298;DHT22;7750;48.796;9.026;2023-12-29T06:45:05;12.30;81.40
15298;DHT22;7750;48.796;9.026;2023-12-29T06:50:08;12.30;81.30
15298;DHT22;7750;48.796;9.026;2023-12-29T06:55:12;12.30;81.50
15298;DHT22;7750;48.796;9.026;2023-12-29T07:00:13;12.30;81.80
15298;DHT22;7750;48.796;9.026;2023-12-29T07:05:14;12.30;81.60
15298;DHT22;7750;48.796;9.026;2023-12-29T07:10:15;12.30;82.30
15298;DHT22;7750;48.796;9.026;2023-12-29T07:15:15;12.30;81.60
15298;DHT22;7750;48.796;9.026;2023-12-29T07:20:16;12.40;81.50
15298;DHT22;7750;48.796;9.026;2023-12-29T07:25:17;12.40;81.80
15298;DHT22;7750;48.796;9.026;2023-12-29T07:30:18;12.40;81.80
15298;DHT22;7750;48.796;9.026;2023-12-29T07:35:18;12.40;81.90
15298;DHT22;7750;48.796;9.026;2023-12-29T07:40:20;12.40;82.40
15298;DHT22;7750;48.796;9.026;2023-12-29T07:45:20;12.40;82.10
15298;DHT22;7750;48.796;9.026;2023-12-29T07:50:21;12.40;82.00
15298;DHT22;7750;48.796;9.026;2023-12-29T07:55:21;12.50;82.10
15298;DHT22;7750;48.796;9.026;2023-12-29T08:00:22;12.50;81.90
15298;DHT22;7750;48.796;9.026;2023-12-29T08:05:23;12.50;82.20
15298;DHT22;7750;48.796;9.026;2023-12-29T08:10:24;12.50;82.20
15298;DHT22;7750;48.796;9.026;2023-12-29T08:15:24;12.50;82.90
15298;DHT22;7750;48.796;9.026;2023-12-29T08:20:25;12.40;82.00
15298;DHT22;7750;48.796;9.026;2023-12-29T08:25:25;12.40;82.50
15298;DHT22;7750;48.796;9.026;2023-12-29T08:30:26;12.50;82.40
15298;DHT22;7750;48.796;9.026;2023-12-29T08:35:27;12.50;82.60
15298;DHT22;7750;48.796;9.026;2023-12-29T08:40:27;12.50;83.20
15298;DHT22;7750;48.796;9.026;2023-12-29T08:45:28;12.50;82.80
15298;DHT22;7750;48.796;9.026;2023-12-29T08:50:28;12.50;82.50
15298;DHT22;7750;48.796;9.026;2023-12-29T08:55:29;12.50;82.80
15298;DHT22;7750;48.796;9.026;2023-12-29T09:00:31;12.60;82.70
15298;DHT22;7750;48.796;9.026;2023-12-29T09:05:33;12.70;82.70
15298;DHT22;7750;48.796;9.026;2023-12-29T09:10:34;12.70;82.70
15298;DHT22;7750;48.796;9.026;2023-12-29T09:15:34;12.70;82.30
15298;DHT22;7750;48.796;9.026;2023-12-29T09:20:35;12.80;82.30
15298;DHT22;7750;48.796;9.026;2023-12-29T09:25:36;12.70;82.20
15298;DHT22;7750;48.796;9.026;2023-12-29T09:30:36;12.80;82.70
15298;DHT22;7750;48.796;9.026;2023-12-29T09:35:39;12.80;82.70
15298;DHT22;7750;48.796;9.026;2023-12-29T09:40:40;12.80;82.90
15298;DHT22;7750;48.796;9.026;2023-12-29T09:45:42;12.90;83.10
15298;DHT22;7750;48.796;9.026;2023-12-29T09:50:46;12.90;83.00
15298;DHT22;7750;48.796;9.026;2023-12-29T09:55:48;12.90;83.20
15298;DHT22;7750;48.796;9.026;2023-12-29T10:00:51;13.00;83.50
15298;DHT22;7750;48.796;9.026;2023-12-29T10:05:54;13.00;83.80
15298;DHT22;7750;48.796;9.026;2023-12-29T10:11:00;13.10;83.40
15298;DHT22;7750;48.796;9.026;2023-12-29T10:16:20;13.20;83.10
15298;DHT22;7750;48.796;9.026;2023-12-29T10:21:31;13.20;83.00
15298;DHT22;7750;48.796;9.026;2023-12-29T10:26:35;13.30;82.70
15298;DHT22;7750;48.796;9.026;2023-12-29T10:31:36;13.30;82.10
15298;DHT22;7750;48.796;9.026;2023-12-29T10:36:48;13.40;81.90
15298;DHT22;7750;48.796;9.026;2023-12-29T10:41:49;13.40;81.40
15298;DHT22;7750;48.796;9.026;2023-12-29T10:46:50;13.50;81.10
15298;DHT22;7750;48.796;9.026;2023-12-29T10:51:51;13.70;80.20
15298;DHT22;7750;48.796;9.026;2023-12-29T10:57:01;13.90;80.00
15298;DHT22;7750;48.796;9.026;2023-12-29T11:02:03;14.10;78.50
15298;DHT22;7750;48.796;9.026;2023-12-29T11:07:04;14.20;79.40
15298;DHT22;7750;48.796;9.026;2023-12-29T11:12:05;14.40;78.10
15298;DHT22;7750;48.796;9.026;2023-12-29T11:17:10;14.60;77.40
15298;DHT22;7750;48.796;9.026;2023-12-29T11:22:13;14.90;77.20
15298;DHT22;7750;48.796;9.026;2023-12-29T11:27:16;15.10;76.10
15298;DHT22;7750;48.796;9.026;2023-12-29T11:32:22;15.40;75.20
15298;DHT22;7750;48.796;9.026;2023-12-29T11:42:35;15.80;74.00
15298;DHT22;7750;48.796;9.026;2023-12-29T11:47:39;16.00;73.00
15298;DHT22;7750;48.796;9.026;2023-12-29T11:52:40;16.10;71.30
15298;DHT22;7750;48.796;9.026;2023-12-29T11:57:41;16.20;70.40
15298;DHT22;7750;48.796;9.026;2023-12-29T12:02:42;16.20;69.30
15298;DHT22;7750;48.796;9.026;2023-12-29T12:12:47;16.60;69.00
15298;DHT22;7750;48.796;9.026;2023-12-29T12:17:57;16.80;68.50
15298;DHT22;7750;48.796;9.026;2023-12-29T12:23:12;16.90;67.10
15298;DHT22;7750;48.796;9.026;2023-12-29T12:28:15;17.00;66.20
15298;DHT22;7750;48.796;9.026;2023-12-29T12:33:18;17.00;65.60
15298;DHT22;7750;48.796;9.026;2023-12-29T12:38:18;16.90;65.60
15298;DHT22;7750;48.796;9.026;2023-12-29T12:43:25;16.90;65.20
15298;DHT22;7750;48.796;9.026;2023-12-29T12:48:41;16.90;64.40
15298;DHT22;7750;48.796;9.026;2023-12-29T12:53:43;16.80;64.60
15298;DHT22;7750;48.796;9.026;2023-12-29T12:58:48;16.70;64.30
15298;DHT22;7750;48.796;9.026;2023-12-29T13:03:49;16.50;65.30
15298;DHT22;7750;48.796;9.026;2023-12-29T13:08:51;16.40;65.10
15298;DHT22;7750;48.796;9.026;2023-12-29T13:13:53;16.30;65.10
15298;DHT22;7750;48.796;9.026;2023-12-29T13:19:22;16.20;64.90
15298;DHT22;7750;48.796;9.026;2023-12-29T13:24:25;16.10;64.00
15298;DHT22;7750;48.796;9.026;2023-12-29T13:34:38;15.90;64.40
15298;DHT22;7750;48.796;9.026;2023-12-29T13:40:01;15.80;64.60
15298;DHT22;7750;48.796;9.026;2023-12-29T13:50:14;15.60;64.00
15298;DHT22;7750;48.796;9.026;2023-12-29T13:55:22;15.50;64.00
15298;DHT22;7750;48.796;9.026;2023-12-29T14:00:25;15.50;63.30
15298;DHT22;7750;48.796;9.026;2023-12-29T14:05:36;15.40;62.80
15298;DHT22;7750;48.796;9.026;2023-12-29T14:10:42;15.40;62.50
15298;DHT22;7750;48.796;9.026;2023-12-29T14:15:44;15.30;62.30
15298;DHT22;7750;48.796;9.026;2023-12-29T14:20:50;15.20;62.70
15298;DHT22;7750;48.796;9.026;2023-12-29T14:26:10;15.20;62.60
15298;DHT22;7750;48.796;9.026;2023-12-29T14:31:11;15.20;63.20
15298;DHT22;7750;48.796;9.026;2023-12-29T14:36:12;15.10;63.50
15298;DHT22;7750;48.796;9.026;2023-12-29T14:41:13;15.10;63.20
15298;DHT22;7750;48.796;9.026;2023-12-29T14:46:13;15.10;62.90
15298;DHT22;7750;48.796;9.026;2023-12-29T14:51:15;15.10;63.40
15298;DHT22;7750;48.796;9.026;2023-12-29T14:56:17;15.10;63.20
15298;DHT22;7750;48.796;9.026;2023-12-29T15:01:17;15.10;63.40
15298;DHT22;7750;48.796;9.026;2023-12-29T15:06:18;15.10;62.50
15298;DHT22;7750;48.796;9.026;2023-12-29T15:11:20;15.00;62.50
15298;DHT22;7750;48.796;9.026;2023-12-29T15:16:21;14.90;62.70
15298;DHT22;7750;48.796;9.026;2023-12-29T15:21:21;14.90;62.80
15298;DHT22;7750;48.796;9.026;2023-12-29T15:26:22;14.80;63.30
15298;DHT22;7750;48.796;9.026;2023-12-29T15:31:23;14.80;62.10
15298;DHT22;7750;48.796;9.026;2023-12-29T15:36:37;14.70;61.30
15298;DHT22;7750;48.796;9.026;2023-12-29T15:41:38;14.60;61.90
15298;DHT22;7750;48.796;9.026;2023-12-29T15:46:39;14.60;62.20
15298;DHT22;7750;48.796;9.026;2023-12-29T15:51:41;14.50;62.40
15298;DHT22;7750;48.796;9.026;2023-12-29T15:56:42;14.40;62.30
15298;DHT22;7750;48.796;9.026;2023-12-29T16:01:44;14.40;62.20
15298;DHT22;7750;48.796;9.026;2023-12-29T16:06:45;14.40;62.00
15298;DHT22;7750;48.796;9.026;2023-12-29T16:11:46;14.30;61.30
15298;DHT22;7750;48.796;9.026;2023-12-29T16:16:47;14.20;61.40
15298;DHT22;7750;48.796;9.026;2023-12-29T16:21:48;14.20;61.10
15298;DHT22;7750;48.796;9.026;2023-12-29T16:26:48;14.10;61.40
15298;DHT22;7750;48.796;9.026;2023-12-29T16:31:49;14.10;60.40
15298;DHT22;7750;48.796;9.026;2023-12-29T16:36:58;14.10;60.60
15298;DHT22;7750;48.796;9.026;2023-12-29T16:41:58;14.00;60.50
15298;DHT22;7750;48.796;9.026;2023-12-29T16:46:59;13.90;60.50
15298;DHT22;7750;48.796;9.026;2023-12-29T16:52:00;13.90;60.90
15298;DHT22;7750;48.796;9.026;2023-12-29T16:57:01;13.90;60.90
15298;DHT22;7750;48.796;9.026;2023-12-29T17:02:02;13.80;61.50
15298;DHT22;7750;48.796;9.026;2023-12-29T17:07:07;13.70;61.00
15298;DHT22;7750;48.796;9.026;2023-12-29T17:12:10;13.60;61.00
15298;DHT22;7750;48.796;9.026;2023-12-29T17:17:10;13.60;61.00
15298;DHT22;7750;48.796;9.026;2023-12-29T17:22:11;13.40;60.90
15298;DHT22;7750;48.796;9.026;2023-12-29T17:27:12;13.40;61.20
15298;DHT22;7750;48.796;9.026;2023-12-29T17:32:13;13.30;61.50
15298;DHT22;7750;48.796;9.026;2023-12-29T17:37:13;13.20;61.60
15298;DHT22;7750;48.796;9.026;2023-12-29T17:42:17;13.20;62.00
15298;DHT22;7750;48.796;9.026;2023-12-29T17:47:18;13.10;62.20
15298;DHT22;7750;48.796;9.026;2023-12-29T17:52:19;13.00;62.50
15298;DHT22;7750;48.796;9.026;2023-12-29T17:57:20;12.90;62.80
15298;DHT22;7750;48.796;9.026;2023-12-29T18:02:24;12.80;63.10
15298;DHT22;7750;48.796;9.026;2023-12-29T18:07:27;12.80;63.40
15298;DHT22;7750;48.796;9.026;2023-12-29T18:12:27;12.70;63.60
15298;DHT22;7750;48.796;9.026;2023-12-29T18:17:28;12.60;63.80
15298;DHT22;7750;48.796;9.026;2023-12-29T18:22:33;12.60;64.10
15298;DHT22;7750;48.796;9.026;2023-12-29T18:27:35;12.60;64.20
15298;DHT22;7750;48.796;9.026;2023-12-29T18:32:37;12.50;64.50
15298;DHT22;7750;48.796;9.026;2023-12-29T18:37:38;12.50;64.80
15298;DHT22;7750;48.796;9.026;2023-12-29T18:42:39;12.40;65.10
15298;DHT22;7750;48.796;9.026;2023-12-29T18:47:39;12.40;65.20
15298;DHT22;7750;48.796;9.026;2023-12-29T18:52:40;12.40;65.50
15298;DHT22;7750;48.796;9.026;2023-12-29T18:57:40;12.30;65.50
15298;DHT22;7750;48.796;9.026;2023-12-29T19:02:41;12.30;65.70
15298;DHT22;7750;48.796;9.026;2023-12-29T19:07:42;12.30;65.80
15298;DHT22;7750;48.796;9.026;2023-12-29T19:12:42;12.30;66.00
15298;DHT22;7750;48.796;9.026;2023-12-29T19:17:47;12.30;66.20
15298;DHT22;7750;48.796;9.026;2023-12-29T19:22:47;12.30;66.30
15298;DHT22;7750;48.796;9.026;2023-12-29T19:27:51;12.30;66.40
15298;DHT22;7750;48.796;9.026;2023-12-29T19:32:52;12.20;66.50
15298;DHT22;7750;48.796;9.026;2023-12-29T19:37:53;12.20;66.80
15298;DHT22;7750;48.796;9.026;2023-12-29T19:42:53;12.10;67.10
15298;DHT22;7750;48.796;9.026;2023-12-29T19:47:54;12.10;67.60
15298;DHT22;7750;48.796;9.026;2023-12-29T19:52:56;12.10;68.10
15298;DHT22;7750;48.796;9.026;2023-12-29T19:57:57;12.10;68.50
15298;DHT22;7750;48.796;9.026;2023-12-29T20:02:57;12.10;68.70
15298;DHT22;7750;48.796;9.026;2023-12-29T20:07:58;12.10;68.80
15298;DHT22;7750;48.796;9.026;2023-12-29T20:12:59;12.10;68.70
15298;DHT22;7750;48.796;9.026;2023-12-29T20:17:59;12.10;68.20
15298;DHT22;7750;48.796;9.026;2023-12-29T20:23:00;12.10;67.80
15298;DHT22;7750;48.796;9.026;2023-12-29T20:28:02;12.20;67.60
15298;DHT22;7750;48.796;9.026;2023-12-29T20:33:03;12.20;67.30
15298;DHT22;7750;48.796;9.026;2023-12-29T20:38:06;12.30;66.90
15298;DHT22;7750;48.796;9.026;2023-12-29T20:43:07;12.20;66.50
15298;DHT22;7750;48.796;9.026;2023-12-29T20:48:12;12.30;66.30
15298;DHT22;7750;48.796;9.026;2023-12-29T20:53:14;12.30;66.10
15298;DHT22;7750;48.796;9.026;2023-12-29T20:58:15;12.30;65.80
15298;DHT22;7750;48.796;9.026;2023-12-29T21:03:16;12.30;65.60
15298;DHT22;7750;48.796;9.026;2023-12-29T21:08:16;12.40;65.50
15298;DHT22;7750;48.796;9.026;2023-12-29T21:13:17;12.40;65.50
15298;DHT22;7750;48.796;9.026;2023-12-29T21:18:18;12.40;65.40
15298;DHT22;7750;48.796;9.026;2023-12-29T21:23:21;12.40;66.10
15298;DHT22;7750;48.796;9.026;2023-12-29T21:28:23;12.40;65.40
15298;DHT22;7750;48.796;9.026;2023-12-29T21:35:20;12.40;65.10
15298;DHT22;7750;48.796;9.026;2023-12-29T21:40:21;12.40;65.20
15298;DHT22;7750;48.796;9.026;2023-12-29T21:45:23;12.50;65.30
15298;DHT22;7750;48.796;9.026;2023-12-29T21:50:24;12.50;65.40
15298;DHT22;7750;48.796;9.026;2023-12-29T21:55:24;12.50;65.30
15298;DHT22;7750;48.796;9.026;2023-12-29T22:00:28;12.50;65.30
15298;DHT22;7750;48.796;9.026;2023-12-29T22:05:32;12.50;66.20
15298;DHT22;7750;48.796;9.026;2023-12-29T22:10:34;12.60;65.70
15298;DHT22;7750;48.796;9.026;2023-12-29T22:15:35;12.60;65.80
15298;DHT22;7750;48.796;9.026;2023-12-29T22:20:35;12.60;65.90
15298;DHT22;7750;48.796;9.026;2023-12-29T22:25:36;12.60;66.10
15298;DHT22;7750;48.796;9.026;2023-12-29T22:30:38;12.50;66.20
15298;DHT22;7750;48.796;9.026;2023-12-29T22:35:39;12.50;66.70
15298;DHT22;7750;48.796;9.026;2023-12-29T22:40:39;12.40;67.00
15298;DHT22;7750;48.796;9.026;2023-12-29T22:45:40;12.40;67.20
15298;DHT22;7750;48.796;9.026;2023-12-29T22:50:40;12.40;67.80
15298;DHT22;7750;48.796;9.026;2023-12-29T22:55:42;12.40;68.00
15298;DHT22;7750;48.796;9.026;2023-12-29T23:00:42;12.30;68.00
15298;DHT22;7750;48.796;9.026;2023-12-29T23:05:44;12.30;68.10
15298;DHT22;7750;48.796;9.026;2023-12-29T23:10:45;12.30;68.60
15298;DHT22;7750;48.796;9.026;2023-12-29T23:15:45;12.30;68.70
15298;DHT22;7750;48.796;9.026;2023-12-29T23:20:47;12.30;68.80
15298;DHT22;7750;48.796;9.026;2023-12-29T23:25:48;12.30;69.00
15298;DHT22;7750;48.796;9.026;2023-12-29T23:30:48;12.30;68.80
15298;DHT22;7750;48.796;9.026;2023-12-29T23:35:49;12.30;69.00
15298;DHT22;7750;48.796;9.026;2023-12-29T23:40:49;12.30;69.00
15298;DHT22;7750;48.796;9.026;2023-12-29T23:45:51;12.30;69.30
15298;DHT22;7750;48.796;9.026;2023-12-29T23:50:52;12.30;69.40
15298;DHT22;7750;48.796;9.026;2023-12-29T23:55:54;12.40;69.40
